createdAt,value
2019-01-11T00:01:35.131Z,101890.31
2019-01-11T00:04:38.926Z,101886.88
2019-01-11T00:07:42.928Z,101879.88
2019-01-11T00:10:46.935Z,101875.39
2019-01-11T00:13:50.818Z,101862.73
2019-01-11T00:16:54.708Z,101860.91
2019-01-11T00:20:03.532Z,101845.97
2019-01-11T00:23:04.209Z,101857.52
2019-01-11T00:26:08.157Z,101861.52
2019-01-11T00:29:12.132Z,101859.39
2019-01-11T00:32:15.991Z,101856.70
2019-01-11T00:35:20.064Z,101855.47
2019-01-11T00:38:24.035Z,101848.51
2019-01-11T00:41:27.913Z,101844.51
2019-01-11T00:44:31.804Z,101836.61
2019-01-11T00:47:35.693Z,101834.89
2019-01-11T00:50:39.605Z,101834.48
2019-01-11T00:53:43.479Z,101835.52
2019-01-11T00:56:47.397Z,101832.95
2019-01-11T00:59:51.201Z,101828.57
2019-01-11T01:02:55.181Z,101828.96
2019-01-11T01:05:59.192Z,101819.79
2019-01-11T01:09:04.872Z,101819.41
2019-01-11T01:12:09.196Z,101821.23
2019-01-11T01:15:14.032Z,101820.37
2019-01-11T01:18:18.180Z,101826.48
2019-01-11T01:21:22.266Z,101823.37
2019-01-11T01:24:26.165Z,101824.78
2019-01-11T01:27:30.145Z,101827.86
2019-01-11T01:30:34.283Z,101825.66
2019-01-11T01:33:38.188Z,101822.16
2019-01-11T01:36:42.188Z,101821.30
2019-01-11T01:39:46.266Z,101823.95
2019-01-11T01:42:50.157Z,101822.64
2019-01-11T01:45:54.239Z,101817.86
2019-01-11T01:48:58.369Z,101810.84
2019-01-11T01:52:02.286Z,101799.42
2019-01-11T01:55:07.705Z,101805.61
2019-01-11T01:58:11.697Z,101800.77
2019-01-11T02:01:15.568Z,101800.36
2019-01-11T02:04:19.480Z,101809.56
2019-01-11T02:07:23.495Z,101807.32
2019-01-11T02:10:27.457Z,101802.98
2019-01-11T02:13:31.330Z,101803.88
2019-01-11T02:16:35.411Z,101798.16
2019-01-11T02:19:39.503Z,101799.02
2019-01-11T02:22:43.636Z,101798.61
2019-01-11T02:25:47.522Z,101792.87
2019-01-11T02:28:51.550Z,101791.57
2019-01-11T02:31:55.427Z,101787.23
2019-01-11T02:34:59.443Z,101794.30
2019-01-11T02:38:03.781Z,101793.80
2019-01-11T02:41:07.665Z,101780.62
2019-01-11T02:44:11.608Z,101785.93
2019-01-11T02:47:15.584Z,101782.83
2019-01-11T02:50:19.481Z,101775.41
2019-01-11T02:53:23.386Z,101774.11
2019-01-11T02:56:27.322Z,101771.46
2019-01-11T02:59:31.300Z,101773.23
2019-01-11T03:02:35.308Z,101771.48
2019-01-11T03:05:39.219Z,101770.64
2019-01-11T03:08:43.216Z,101770.25
2019-01-11T03:11:47.095Z,101757.45
2019-01-11T03:14:51.183Z,101754.81
2019-01-11T03:17:55.066Z,101753.05
2019-01-11T03:20:58.951Z,101754.41
2019-01-11T03:24:02.841Z,101739.00
2019-01-11T03:27:06.764Z,101742.94
2019-01-11T03:30:16.038Z,101741.17
2019-01-11T03:33:19.893Z,101735.02
2019-01-11T03:36:23.784Z,101726.23
2019-01-11T03:39:27.673Z,101725.36
2019-01-11T03:42:31.552Z,101720.97
2019-01-11T03:45:35.455Z,101716.14
2019-01-11T03:48:39.354Z,101705.57
2019-01-11T03:51:43.238Z,101706.42
2019-01-11T03:54:47.052Z,101701.59
2019-01-11T03:57:51.018Z,101702.06
2019-01-11T04:00:54.905Z,101695.47
2019-01-11T04:03:58.820Z,101684.45
2019-01-11T04:07:02.686Z,101686.20
2019-01-11T04:10:09.527Z,101680.06
2019-01-11T04:13:14.799Z,101683.12
2019-01-11T04:16:18.725Z,101679.62
2019-01-11T04:19:22.648Z,101669.06
2019-01-11T04:22:31.513Z,101661.59
2019-01-11T04:25:41.338Z,101667.30
2019-01-11T04:28:45.320Z,101652.79
2019-01-11T04:31:49.627Z,101645.73
2019-01-11T04:34:53.579Z,101642.20
2019-01-11T04:37:57.543Z,101643.07
2019-01-11T04:41:01.425Z,101632.97
2019-01-11T04:44:05.391Z,101640.00
2019-01-11T04:47:09.274Z,101635.14
2019-01-11T04:50:18.382Z,101634.27
2019-01-11T04:53:22.391Z,101626.79
2019-01-11T04:56:26.271Z,101630.73
2019-01-11T04:59:30.180Z,101627.22
2019-01-11T05:02:34.058Z,101623.24
2019-01-11T05:05:37.975Z,101621.93
2019-01-11T05:08:41.876Z,101618.84
2019-01-11T05:11:45.724Z,101622.77
2019-01-11T05:14:49.563Z,101604.29
2019-01-11T05:17:53.403Z,101602.95
2019-01-11T05:20:57.194Z,101611.32
2019-01-11T05:24:01.078Z,101600.77
2019-01-11T05:27:04.902Z,101595.02
2019-01-11T05:30:12.402Z,101588.43
2019-01-11T05:33:16.276Z,101591.06
2019-01-11T05:36:20.090Z,101593.67
2019-01-11T05:39:23.908Z,101583.98
2019-01-11T05:42:27.760Z,101581.30
2019-01-11T05:45:31.641Z,101572.53
2019-01-11T05:48:35.560Z,101570.36
2019-01-11T05:51:39.552Z,101573.39
2019-01-11T05:54:43.445Z,101585.73
2019-01-11T05:58:13.605Z,101571.66
2019-01-11T06:01:17.471Z,101565.94
2019-01-11T06:04:52.671Z,101558.44
2019-01-11T06:08:01.270Z,101555.80
2019-01-11T06:11:05.417Z,101556.67
2019-01-11T06:14:09.316Z,101553.61
2019-01-11T06:17:13.337Z,101542.59
2019-01-11T06:20:17.678Z,101532.92
2019-01-11T06:23:21.528Z,101551.41
2019-01-11T06:26:25.480Z,101547.46
2019-01-11T06:29:29.297Z,101541.70
2019-01-11T06:32:33.111Z,101537.73
2019-01-11T06:35:36.978Z,101546.09
2019-01-11T06:38:40.793Z,101539.00
2019-01-11T06:41:50.763Z,101550.92
2019-01-11T06:44:54.969Z,101549.59
2019-01-11T06:47:58.923Z,101539.45
2019-01-11T06:51:02.744Z,101535.94
2019-01-11T06:54:06.614Z,101539.47
2019-01-11T06:57:10.678Z,101539.01
2019-01-11T07:00:15.159Z,101528.43
2019-01-11T07:03:18.970Z,101531.52
2019-01-11T07:06:22.841Z,101531.08
2019-01-11T07:09:26.756Z,101534.56
2019-01-11T07:12:30.624Z,101527.91
2019-01-11T07:15:34.445Z,101529.72
2019-01-11T07:18:38.271Z,101521.31
2019-01-11T07:21:42.152Z,101518.30
2019-01-11T07:24:46.319Z,101531.95
2019-01-11T07:28:02.009Z,101528.80
2019-01-11T07:31:08.207Z,101524.44
2019-01-11T07:34:12.089Z,101527.98
2019-01-11T07:37:15.956Z,101528.87
2019-01-11T07:40:19.856Z,101525.82
2019-01-11T07:43:23.683Z,101525.36
2019-01-11T07:46:27.649Z,101533.32
2019-01-11T07:49:31.608Z,101524.95
2019-01-11T07:52:35.563Z,101523.20
2019-01-11T07:55:39.529Z,101527.16
2019-01-11T07:58:43.529Z,101527.63
2019-01-11T08:01:47.571Z,101518.39
2019-01-11T08:04:51.576Z,101518.37
2019-01-11T08:07:55.456Z,101521.91
2019-01-11T08:10:59.275Z,101531.16
2019-01-11T08:14:03.240Z,101517.06
2019-01-11T08:17:07.144Z,101517.53
2019-01-11T08:20:11.072Z,101524.59
2019-01-11T08:23:14.965Z,101524.14
2019-01-11T08:26:18.916Z,101524.17
2019-01-11T08:29:22.839Z,101521.53
2019-01-11T08:32:26.716Z,101520.68
2019-01-11T08:35:30.624Z,101519.80
2019-01-11T08:38:34.483Z,101510.11
2019-01-11T08:41:38.878Z,101513.62
2019-01-11T08:44:43.260Z,101516.67
2019-01-11T08:47:47.251Z,101513.62
2019-01-11T08:50:51.301Z,101523.32
2019-01-11T08:53:55.175Z,101517.59
2019-01-11T08:57:00.790Z,101513.59
2019-01-11T09:00:05.987Z,101511.40
2019-01-11T09:03:09.872Z,101519.33
2019-01-11T09:06:13.843Z,101515.38
2019-01-11T09:09:17.828Z,101514.94
2019-01-11T09:12:21.756Z,101513.55
2019-01-11T09:15:25.653Z,101513.11
2019-01-11T09:18:43.026Z,101511.77
2019-01-11T09:21:46.929Z,101510.45
2019-01-11T09:24:50.810Z,101504.77
2019-01-11T09:27:54.612Z,101499.44
2019-01-11T09:30:58.462Z,101480.05
2019-01-11T09:34:02.338Z,101481.36
2019-01-11T09:37:06.313Z,101485.30
2019-01-11T09:40:10.406Z,101485.76
2019-01-11T09:43:14.231Z,101472.97
2019-01-11T09:46:18.034Z,101463.66
2019-01-11T09:49:21.860Z,101475.55
2019-01-11T09:52:25.937Z,101472.89
2019-01-11T09:55:29.890Z,101466.27
2019-01-11T09:58:33.701Z,101465.80
2019-01-11T10:01:37.599Z,101472.81
2019-01-11T10:04:42.094Z,101468.36
2019-01-11T10:07:45.987Z,101465.30
2019-01-11T10:10:49.948Z,101459.55
2019-01-11T10:13:53.795Z,101468.75
2019-01-11T10:16:57.751Z,101454.17
2019-01-11T10:20:01.600Z,101447.13
2019-01-11T10:23:05.579Z,101436.13
2019-01-11T10:26:09.611Z,101437.41
2019-01-11T10:29:13.463Z,101429.02
2019-01-11T10:32:17.405Z,101434.34
2019-01-11T10:35:21.581Z,101426.80
2019-01-11T10:38:25.485Z,101424.63
2019-01-11T10:41:29.996Z,101418.02
2019-01-11T10:44:33.906Z,101411.89
2019-01-11T10:47:37.817Z,101412.78
2019-01-11T10:50:41.640Z,101409.68
2019-01-11T10:53:45.453Z,101403.98
2019-01-11T10:56:49.408Z,101403.56
2019-01-11T10:59:53.363Z,101397.84
2019-01-11T11:02:57.718Z,101404.82
2019-01-11T11:06:01.601Z,101412.29
2019-01-11T11:09:07.415Z,101399.06
2019-01-11T11:12:11.322Z,101403.00
2019-01-11T11:15:16.430Z,101404.75
2019-01-11T11:18:20.415Z,101410.14
2019-01-11T11:21:24.290Z,101396.02
2019-01-11T11:24:28.227Z,101389.51
2019-01-11T11:27:32.254Z,101397.31
2019-01-11T11:30:36.143Z,101394.30
2019-01-11T11:33:40.042Z,101407.03
2019-01-11T11:36:43.942Z,101394.23
2019-01-11T11:39:47.849Z,101401.81
2019-01-11T11:42:51.759Z,101402.60
2019-01-11T11:45:55.784Z,101397.81
2019-01-11T11:48:59.648Z,101393.81
2019-01-11T11:52:03.560Z,101397.75
2019-01-11T11:55:07.782Z,101393.31
2019-01-11T11:58:11.639Z,101380.23
2019-01-11T12:01:15.443Z,101373.12
2019-01-11T12:04:19.344Z,101358.07
2019-01-11T12:07:23.146Z,101352.89
2019-01-11T12:10:27.060Z,101365.19
2019-01-11T12:13:34.433Z,101347.59
2019-01-11T12:16:36.697Z,101342.31
2019-01-11T12:19:40.530Z,101344.92
2019-01-11T12:22:44.480Z,101322.09
2019-01-11T12:25:48.311Z,101337.98
2019-01-11T12:28:52.192Z,101322.52
2019-01-11T12:31:56.094Z,101316.84
2019-01-11T12:35:00.005Z,101296.61
2019-01-11T12:38:03.997Z,101311.55
2019-01-11T12:41:07.868Z,101310.33
2019-01-11T12:44:11.819Z,101315.68
2019-01-11T12:47:15.758Z,101312.97
2019-01-11T12:50:22.623Z,101311.19
2019-01-11T12:53:26.513Z,101288.25
2019-01-11T12:56:30.408Z,101289.22
2019-01-11T12:59:34.390Z,101278.61
2019-01-11T13:02:38.268Z,101271.50
2019-01-11T13:05:42.249Z,101278.11
2019-01-11T13:08:46.212Z,101302.86
2019-01-11T13:11:50.122Z,101279.97
2019-01-11T13:14:54.024Z,101273.29
2019-01-11T13:17:57.903Z,101270.17
2019-01-11T13:21:01.789Z,101277.68
2019-01-11T13:24:05.950Z,101271.21
2019-01-11T13:27:09.832Z,101274.64
2019-01-11T13:30:15.705Z,101263.22
2019-01-11T13:33:19.655Z,101273.00
2019-01-11T13:36:23.631Z,101281.78
2019-01-11T13:39:27.511Z,101271.21
2019-01-11T13:42:31.480Z,101280.92
2019-01-11T13:45:35.454Z,101276.13
2019-01-11T13:48:39.472Z,101286.20
2019-01-11T13:51:43.377Z,101302.55
2019-01-11T13:54:47.269Z,101282.25
2019-01-11T13:57:51.175Z,101273.06
2019-01-11T14:00:55.147Z,101281.84
2019-01-11T14:03:58.956Z,101272.23
2019-01-11T14:07:02.865Z,101280.19
2019-01-11T14:10:06.943Z,101270.97
2019-01-11T14:13:10.840Z,101278.04
2019-01-11T14:16:14.815Z,101285.11
2019-01-11T14:19:18.645Z,101283.81
2019-01-11T14:22:22.473Z,101291.73
2019-01-11T14:25:26.480Z,101292.20
2019-01-11T14:28:30.274Z,101295.78
2019-01-11T14:31:34.277Z,101289.17
2019-01-11T14:34:38.147Z,101294.51
2019-01-11T14:37:42.211Z,101295.78
2019-01-11T14:40:46.092Z,101285.69
2019-01-11T14:43:50.274Z,101308.65
2019-01-11T14:46:54.085Z,101340.28
2019-01-11T14:49:57.960Z,101304.64
2019-01-11T14:53:01.874Z,101316.61
2019-01-11T14:56:05.854Z,101318.84
2019-01-11T14:59:09.712Z,101325.45
2019-01-11T15:02:13.598Z,101325.44
2019-01-11T15:05:17.828Z,101326.32
2019-01-11T15:08:21.611Z,101331.64
2019-01-11T15:11:25.503Z,101340.90
2019-01-11T15:14:29.448Z,101349.23
2019-01-11T15:17:33.229Z,101367.72
2019-01-11T15:20:37.117Z,101369.47
2019-01-11T15:23:41.053Z,101373.03
2019-01-11T15:26:44.924Z,101372.63
2019-01-11T15:29:48.827Z,101373.09
2019-01-11T15:32:52.807Z,101373.06
2019-01-11T15:35:56.795Z,101376.61
2019-01-11T15:39:00.677Z,101364.31
2019-01-11T15:42:04.646Z,101378.82
2019-01-11T15:45:08.608Z,101376.61
2019-01-11T15:48:17.638Z,101379.25
2019-01-11T15:51:24.320Z,101381.91
2019-01-11T15:54:28.206Z,101387.19
2019-01-11T15:57:44.388Z,101385.44
2019-01-11T16:00:49.128Z,101391.18
2019-01-11T16:03:53.105Z,101386.78
2019-01-11T16:06:56.983Z,101386.34
2019-01-11T16:10:05.995Z,101396.47
2019-01-11T16:13:29.582Z,101394.69
2019-01-11T16:16:47.304Z,101399.56
2019-01-11T16:19:51.143Z,101410.53
2019-01-11T16:22:55.022Z,101406.59
2019-01-11T16:25:58.863Z,101402.20
2019-01-11T16:29:02.758Z,101405.28
2019-01-11T16:32:06.731Z,101409.69
2019-01-11T16:35:10.672Z,101412.30
2019-01-11T16:38:14.681Z,101411.01
2019-01-11T16:41:18.492Z,101403.08
2019-01-11T16:44:22.481Z,101410.56
2019-01-11T16:47:26.392Z,101414.50
2019-01-11T16:50:30.282Z,101411.00
2019-01-11T16:53:34.190Z,101417.56
2019-01-11T16:56:38.183Z,101426.34
2019-01-11T16:59:42.037Z,101429.86
2019-01-11T17:02:45.928Z,101434.26
2019-01-11T17:05:49.992Z,101435.14
2019-01-11T17:08:53.885Z,101431.17
2019-01-11T17:11:58.338Z,101438.20
2019-01-11T17:15:02.422Z,101438.63
2019-01-11T17:18:06.430Z,101436.45
2019-01-11T17:21:10.301Z,101440.84
2019-01-11T17:24:14.387Z,101449.17
2019-01-11T17:27:18.561Z,101449.17
2019-01-11T17:30:22.434Z,101452.70
2019-01-11T17:33:26.319Z,101456.21
2019-01-11T17:36:30.208Z,101453.56
2019-01-11T17:39:34.500Z,101454.00
2019-01-11T17:42:38.397Z,101451.38
2019-01-11T17:45:42.259Z,101452.27
2019-01-11T17:48:46.175Z,101456.66
2019-01-11T17:51:50.045Z,101459.27
2019-01-11T17:54:54.112Z,101469.83
2019-01-11T17:57:57.976Z,101464.56
2019-01-11T18:01:01.958Z,101468.47
2019-01-11T18:04:06.233Z,101464.52
2019-01-11T18:07:10.120Z,101465.44
2019-01-11T18:10:14.178Z,101467.16
2019-01-11T18:13:18.036Z,101471.11
2019-01-11T18:16:21.879Z,101477.25
2019-01-11T18:19:25.767Z,101484.70
2019-01-11T18:22:29.687Z,101485.17
2019-01-11T18:25:33.569Z,101477.73
2019-01-11T18:28:37.420Z,101476.84
2019-01-11T18:31:41.279Z,101477.67
2019-01-11T18:34:45.271Z,101478.56
2019-01-11T18:37:49.142Z,101482.95
2019-01-11T18:40:53.026Z,101482.88
2019-01-11T18:43:57.007Z,101489.91
2019-01-11T18:47:00.844Z,101483.32
2019-01-11T18:50:07.730Z,101488.59
2019-01-11T18:53:13.847Z,101483.34
2019-01-11T18:56:17.234Z,101474.97
2019-01-11T18:59:21.174Z,101482.02
2019-01-11T19:02:25.009Z,101488.59
2019-01-11T19:05:28.870Z,101487.67
2019-01-11T19:08:32.684Z,101488.14
2019-01-11T19:11:36.564Z,101488.63
2019-01-11T19:14:40.371Z,101492.96
2019-01-11T19:17:44.435Z,101500.45
2019-01-11T19:20:48.391Z,101514.48
2019-01-11T19:23:52.336Z,101508.34
2019-01-11T19:26:56.319Z,101506.10
2019-01-11T19:30:00.253Z,101506.06
2019-01-11T19:33:04.177Z,101513.52
2019-01-11T19:36:08.147Z,101515.77
2019-01-11T19:39:11.958Z,101504.82
2019-01-11T19:42:15.840Z,101505.70
2019-01-11T19:45:20.393Z,101511.38
2019-01-11T19:48:24.282Z,101508.28
2019-01-11T19:51:28.168Z,101517.09
2019-01-11T19:54:31.993Z,101514.44
2019-01-11T19:57:36.077Z,101512.67
2019-01-11T20:00:40.088Z,101522.73
2019-01-11T20:03:43.970Z,101520.93
2019-01-11T20:06:48.033Z,101524.48
2019-01-11T20:09:52.003Z,101531.98
2019-01-11T20:12:55.957Z,101525.80
2019-01-11T20:15:59.896Z,101523.60
2019-01-11T20:19:04.386Z,101526.62
2019-01-11T20:22:08.332Z,101531.03
2019-01-11T20:25:15.002Z,101535.41
2019-01-11T20:28:18.950Z,101532.33
2019-01-11T20:31:22.774Z,101529.68
2019-01-11T20:34:27.216Z,101526.59
2019-01-11T20:37:33.565Z,101521.34
2019-01-11T20:40:37.546Z,101529.16
2019-01-11T20:43:41.492Z,101527.83
2019-01-11T20:46:45.356Z,101524.80
2019-01-11T20:49:49.321Z,101525.20
2019-01-11T20:52:53.303Z,101527.41
2019-01-11T20:55:57.257Z,101524.73
2019-01-11T20:59:01.548Z,101529.14
2019-01-11T21:02:05.787Z,101530.52
2019-01-11T21:05:10.047Z,101521.28
2019-01-11T21:08:13.828Z,101527.03
2019-01-11T21:11:17.799Z,101525.63
2019-01-11T21:14:21.667Z,101524.77
2019-01-11T21:17:25.552Z,101521.28
2019-01-11T21:20:29.434Z,101520.38
2019-01-11T21:23:33.329Z,101527.95
2019-01-11T21:26:37.503Z,101534.50
2019-01-11T21:29:41.368Z,101534.52
2019-01-11T21:32:45.537Z,101531.06
2019-01-11T21:35:49.515Z,101524.48
2019-01-11T21:38:53.393Z,101523.56
2019-01-11T21:41:57.264Z,101523.61
2019-01-11T21:45:01.198Z,101523.17
2019-01-11T21:48:05.171Z,101531.44
2019-01-11T21:51:09.125Z,101528.42
2019-01-11T21:54:14.616Z,101523.18
2019-01-11T21:57:18.490Z,101517.91
2019-01-11T22:00:31.948Z,101521.42
2019-01-11T22:03:35.830Z,101527.08
2019-01-11T22:06:39.795Z,101517.94
2019-01-11T22:09:43.679Z,101518.36
2019-01-11T22:12:47.825Z,101524.08
2019-01-11T22:15:51.751Z,101513.53
2019-01-11T22:18:55.646Z,101518.29
2019-01-11T22:21:59.498Z,101513.03
2019-01-11T22:25:03.450Z,101514.77
2019-01-11T22:28:07.534Z,101512.64
2019-01-11T22:31:11.332Z,101510.02
2019-01-11T22:34:15.164Z,101506.97
2019-01-11T22:37:19.108Z,101507.01
2019-01-11T22:40:23.865Z,101510.09
2019-01-11T22:43:27.746Z,101510.08
2019-01-11T22:46:31.629Z,101508.78
2019-01-11T22:49:35.504Z,101498.70
2019-01-11T22:52:39.388Z,101499.13
2019-01-11T22:55:43.215Z,101499.64
2019-01-11T22:58:47.105Z,101496.98
2019-01-11T23:02:14.832Z,101503.15
2019-01-11T23:05:18.792Z,101503.16
2019-01-11T23:08:22.891Z,101498.33
2019-01-11T23:11:54.173Z,101497.89
2019-01-11T23:14:57.987Z,101495.69
2019-01-11T23:18:05.195Z,101501.86
2019-01-11T23:21:09.648Z,101501.86
2019-01-11T23:24:17.274Z,101499.27
2019-01-11T23:27:19.219Z,101495.73
2019-01-11T23:30:23.199Z,101488.27
2019-01-11T23:33:27.079Z,101496.19
2019-01-11T23:36:30.950Z,101486.52
2019-01-11T23:39:34.847Z,101494.89
2019-01-11T23:42:38.812Z,101486.53
2019-01-11T23:45:42.728Z,101475.12
2019-01-11T23:48:46.597Z,101473.80
2019-01-11T23:51:50.493Z,101465.44
2019-01-11T23:54:54.370Z,101466.77
2019-01-11T23:57:58.289Z,101466.33
